createdAt,value
2023-03-06T00:00:33.609Z,94.73
2023-03-06T00:01:33.580Z,94.84
2023-03-06T00:02:33.571Z,94.73
2023-03-06T00:03:33.676Z,94.63
2023-03-06T00:04:33.560Z,94.73
2023-03-06T00:05:33.585Z,94.94
2023-03-06T00:06:33.524Z,95.25
2023-03-06T00:07:33.518Z,95.67
2023-03-06T00:08:33.499Z,96.08
2023-03-06T00:09:33.505Z,96.39
2023-03-06T00:10:33.475Z,96.23
2023-03-06T00:11:33.493Z,96.33
2023-03-06T00:12:33.506Z,96.79
2023-03-06T00:13:33.442Z,97.31
2023-03-06T00:14:33.453Z,97.41
2023-03-06T00:15:33.462Z,97.72
2023-03-06T00:16:33.474Z,97.62
2023-03-06T00:17:33.424Z,97.83
2023-03-06T00:18:33.384Z,98.03
2023-03-06T00:19:33.387Z,98.19
2023-03-06T00:20:33.363Z,98.19
2023-03-06T00:21:33.376Z,98.19
2023-03-06T00:22:33.362Z,98.39
2023-03-06T00:23:33.333Z,98.50
2023-03-06T00:24:33.340Z,98.50
2023-03-06T00:25:33.313Z,98.29
2023-03-06T00:26:33.303Z,97.88
2023-03-06T00:27:33.283Z,97.67
2023-03-06T00:28:33.615Z,97.67
2023-03-06T00:29:33.286Z,97.77
2023-03-06T00:30:33.263Z,97.77
2023-03-06T00:31:33.309Z,97.77
2023-03-06T00:32:33.537Z,97.67
2023-03-06T00:33:33.248Z,97.67
2023-03-06T00:34:33.238Z,97.67
2023-03-06T00:35:33.256Z,97.88
2023-03-06T00:36:33.172Z,97.77
2023-03-06T00:37:33.168Z,97.67
2023-03-06T00:38:33.164Z,97.67
2023-03-06T00:39:33.171Z,97.45
2023-03-06T00:40:33.150Z,97.67
2023-03-06T00:41:33.161Z,97.77
2023-03-06T00:42:33.111Z,97.98
2023-03-06T00:43:33.091Z,98.08
2023-03-06T00:44:33.117Z,98.19
2023-03-06T00:45:33.117Z,98.08
2023-03-06T00:46:33.074Z,97.98
2023-03-06T00:47:35.830Z,97.88
2023-03-06T00:48:33.056Z,97.67
2023-03-06T00:49:33.042Z,97.56
2023-03-06T00:50:33.013Z,97.45
2023-03-06T00:51:33.021Z,97.45
2023-03-06T00:52:33.001Z,97.45
2023-03-06T00:53:33.008Z,97.45
2023-03-06T00:54:32.991Z,97.45
2023-03-06T00:55:33.281Z,97.56
2023-03-06T00:56:33.276Z,97.56
2023-03-06T00:57:39.963Z,97.67
2023-03-06T00:58:39.941Z,97.77
2023-03-06T00:59:41.210Z,97.77
2023-03-06T01:00:39.987Z,97.88
2023-03-06T01:01:39.938Z,97.98
2023-03-06T01:02:33.009Z,97.98
2023-03-06T01:03:32.873Z,97.98
2023-03-06T01:04:32.852Z,98.19
2023-03-06T01:05:32.850Z,98.39
2023-03-06T01:06:32.847Z,98.60
2023-03-06T01:07:32.834Z,98.71
2023-03-06T01:08:32.813Z,98.81
2023-03-06T01:09:32.812Z,98.81
2023-03-06T01:10:32.788Z,99.02
2023-03-06T01:11:32.780Z,99.02
2023-03-06T01:12:32.760Z,99.02
2023-03-06T01:13:32.745Z,99.02
2023-03-06T01:14:32.753Z,99.12
2023-03-06T01:15:32.744Z,99.02
2023-03-06T01:16:32.801Z,98.91
2023-03-06T01:17:33.018Z,98.81
2023-03-06T01:18:32.690Z,98.71
2023-03-06T01:19:32.688Z,98.81
2023-03-06T01:20:33.018Z,99.02
2023-03-06T01:21:32.650Z,98.91
2023-03-06T01:22:32.640Z,98.91
2023-03-06T01:23:32.658Z,98.91
2023-03-06T01:24:32.643Z,99.02
2023-03-06T01:25:32.609Z,99.12
2023-03-06T01:26:32.779Z,99.02
2023-03-06T01:27:32.603Z,98.81
2023-03-06T01:28:32.869Z,98.71
2023-03-06T01:29:32.574Z,98.60
2023-03-06T01:30:32.552Z,98.60
2023-03-06T01:31:32.627Z,98.50
2023-03-06T01:32:32.591Z,98.60
2023-03-06T01:33:32.529Z,98.60
2023-03-06T01:34:32.509Z,98.50
2023-03-06T01:35:32.536Z,98.50
2023-03-06T01:36:32.480Z,98.50
2023-03-06T01:37:32.472Z,98.50
2023-03-06T01:38:32.465Z,98.50
2023-03-06T01:39:32.721Z,98.29
2023-03-06T01:40:32.539Z,98.19
2023-03-06T01:41:32.761Z,98.08
2023-03-06T01:42:32.414Z,98.08
2023-03-06T01:43:32.396Z,97.98
2023-03-06T01:44:32.426Z,97.88
2023-03-06T01:45:34.156Z,97.67
2023-03-06T01:46:32.380Z,97.56
2023-03-06T01:47:32.359Z,97.45
2023-03-06T01:48:32.352Z,97.45
2023-03-06T01:49:32.344Z,97.45
2023-03-06T01:50:32.660Z,97.88
2023-03-06T01:51:32.312Z,97.98
2023-03-06T01:52:32.298Z,97.88
2023-03-06T01:53:32.285Z,97.88
2023-03-06T01:54:32.292Z,97.77
2023-03-06T01:55:32.581Z,97.77
2023-03-06T01:56:32.247Z,97.77
2023-03-06T01:57:32.241Z,98.08
2023-03-06T01:58:32.516Z,97.98
2023-03-06T01:59:32.227Z,97.98
2023-03-06T02:00:33.243Z,97.88
2023-03-06T02:01:32.205Z,97.77
2023-03-06T02:02:32.229Z,97.67
2023-03-06T02:03:32.193Z,97.56
2023-03-06T02:04:32.221Z,97.45
2023-03-06T02:05:32.155Z,97.45
2023-03-06T02:06:32.149Z,97.56
2023-03-06T02:07:32.448Z,97.67
2023-03-06T02:08:32.111Z,97.67
2023-03-06T02:09:32.119Z,97.56
2023-03-06T02:10:37.056Z,97.35
2023-03-06T02:11:32.104Z,97.35
2023-03-06T02:12:32.090Z,97.14
2023-03-06T02:13:32.063Z,97.25
2023-03-06T02:14:32.067Z,97.45
2023-03-06T02:15:32.031Z,97.45
2023-03-06T02:16:32.055Z,97.35
2023-03-06T02:17:34.839Z,97.25
2023-03-06T02:18:32.018Z,97.04
2023-03-06T02:19:32.010Z,96.83
2023-03-06T02:20:31.980Z,96.83
2023-03-06T02:21:32.265Z,96.73
2023-03-06T02:22:31.978Z,96.11
2023-03-06T02:23:31.944Z,95.79
2023-03-06T02:24:31.961Z,95.90
2023-03-06T02:25:31.920Z,96.00
2023-03-06T02:26:31.922Z,96.00
2023-03-06T02:27:31.911Z,95.79
2023-03-06T02:28:31.891Z,95.38
2023-03-06T02:29:31.881Z,95.38
2023-03-06T02:30:31.963Z,95.38
2023-03-06T02:31:32.204Z,95.48
2023-03-06T02:32:31.884Z,95.38
2023-03-06T02:33:31.822Z,95.07
2023-03-06T02:34:38.842Z,95.07
2023-03-06T02:35:38.917Z,95.07
2023-03-06T02:36:39.189Z,95.28
2023-03-06T02:37:38.799Z,94.86
2023-03-06T02:38:31.768Z,94.55
2023-03-06T02:39:31.787Z,94.24
2023-03-06T02:40:31.739Z,93.93
2023-03-06T02:41:32.111Z,93.93
2023-03-06T02:42:33.628Z,94.13
2023-03-06T02:43:31.746Z,93.93
2023-03-06T02:44:31.731Z,93.93
2023-03-06T02:45:31.689Z,93.72
2023-03-06T02:46:31.737Z,93.30
2023-03-06T02:47:31.681Z,93.30
2023-03-06T02:48:31.659Z,93.20
2023-03-06T02:49:31.642Z,93.30
2023-03-06T02:50:31.648Z,93.20
2023-03-06T02:51:31.665Z,93.20
2023-03-06T02:52:31.637Z,93.51
2023-03-06T02:53:31.617Z,93.62
2023-03-06T02:54:31.594Z,93.51
2023-03-06T02:55:31.582Z,93.72
2023-03-06T02:56:31.590Z,93.20
2023-03-06T02:57:31.552Z,93.20
2023-03-06T02:58:31.551Z,93.20
2023-03-06T02:59:31.513Z,92.88
2023-03-06T03:00:31.540Z,92.99
2023-03-06T03:01:31.858Z,93.10
2023-03-06T03:02:31.511Z,93.72
2023-03-06T03:03:31.484Z,93.78
2023-03-06T03:04:31.591Z,93.57
2023-03-06T03:05:31.455Z,93.41
2023-03-06T03:06:31.450Z,93.10
2023-03-06T03:07:31.430Z,92.99
2023-03-06T03:08:31.412Z,92.88
2023-03-06T03:09:31.426Z,92.78
2023-03-06T03:10:31.733Z,92.99
2023-03-06T03:11:31.382Z,92.88
2023-03-06T03:12:31.412Z,92.99
2023-03-06T03:13:31.370Z,93.20
2023-03-06T03:14:31.376Z,93.51
2023-03-06T03:15:31.337Z,93.82
2023-03-06T03:16:31.331Z,93.82
2023-03-06T03:17:31.330Z,93.72
2023-03-06T03:18:31.321Z,94.03
2023-03-06T03:19:31.300Z,94.34
2023-03-06T03:20:31.275Z,94.34
2023-03-06T03:21:31.294Z,94.24
2023-03-06T03:22:31.286Z,94.13
2023-03-06T03:23:31.509Z,94.13
2023-03-06T03:24:31.267Z,94.13
2023-03-06T03:25:31.238Z,94.03
2023-03-06T03:26:31.210Z,94.03
2023-03-06T03:27:31.256Z,94.03
2023-03-06T03:28:31.192Z,94.13
2023-03-06T03:29:31.197Z,94.34
2023-03-06T03:30:31.177Z,94.45
2023-03-06T03:31:33.904Z,94.76
2023-03-06T03:32:31.195Z,94.76
2023-03-06T03:33:31.137Z,94.76
2023-03-06T03:34:31.126Z,94.55
2023-03-06T03:35:31.158Z,94.55
2023-03-06T03:36:31.094Z,94.65
2023-03-06T03:37:31.078Z,93.72
2023-03-06T03:38:31.102Z,93.10
2023-03-06T03:39:31.077Z,92.78
2023-03-06T03:40:31.049Z,92.68
2023-03-06T03:41:31.054Z,92.68
2023-03-06T03:42:31.018Z,92.57
2023-03-06T03:43:31.050Z,93.10
2023-03-06T03:44:31.013Z,92.78
2023-03-06T03:45:31.010Z,92.78
2023-03-06T03:46:31.005Z,92.57
2023-03-06T03:47:30.971Z,92.16
2023-03-06T03:48:30.973Z,91.74
2023-03-06T03:49:30.959Z,92.05
2023-03-06T03:50:30.934Z,91.85
2023-03-06T03:51:31.221Z,91.22
2023-03-06T03:52:30.919Z,91.64
2023-03-06T03:53:30.936Z,91.33
2023-03-06T03:54:30.899Z,91.12
2023-03-06T03:55:30.881Z,91.22
2023-03-06T03:56:30.878Z,91.22
2023-03-06T03:57:30.855Z,91.33
2023-03-06T03:58:30.846Z,91.12
2023-03-06T03:59:30.853Z,91.43
2023-03-06T04:00:30.838Z,90.70
2023-03-06T04:01:30.821Z,90.81
2023-03-06T04:02:30.786Z,91.02
2023-03-06T04:03:30.810Z,91.08
2023-03-06T04:04:30.789Z,90.97
2023-03-06T04:05:30.756Z,91.28
2023-03-06T04:06:30.764Z,90.87
2023-03-06T04:07:30.737Z,90.87
2023-03-06T04:08:37.757Z,90.39
2023-03-06T04:09:39.332Z,90.70
2023-03-06T04:10:37.709Z,91.18
2023-03-06T04:11:37.739Z,91.18
2023-03-06T04:12:37.701Z,91.28
2023-03-06T04:13:37.705Z,91.70
2023-03-06T04:14:37.683Z,91.49
2023-03-06T04:15:30.633Z,91.39
2023-03-06T04:16:30.645Z,91.18
2023-03-06T04:17:30.616Z,90.97
2023-03-06T04:18:30.636Z,91.28
2023-03-06T04:19:30.640Z,91.18
2023-03-06T04:20:30.603Z,91.08
2023-03-06T04:21:30.586Z,91.08
2023-03-06T04:22:30.574Z,90.97
2023-03-06T04:23:30.563Z,91.08
2023-03-06T04:24:30.844Z,90.56
2023-03-06T04:25:30.567Z,90.66
2023-03-06T04:26:30.512Z,91.08
2023-03-06T04:27:30.544Z,91.08
2023-03-06T04:28:30.533Z,91.28
2023-03-06T04:29:30.486Z,90.35
2023-03-06T04:30:30.477Z,90.04
2023-03-06T04:31:30.493Z,89.94
2023-03-06T04:32:30.551Z,89.62
2023-03-06T04:33:30.491Z,90.08
2023-03-06T04:34:30.448Z,90.60
2023-03-06T04:35:30.508Z,90.08
2023-03-06T04:36:30.418Z,90.19
2023-03-06T04:37:30.397Z,90.08
2023-03-06T04:38:30.393Z,89.98
2023-03-06T04:39:30.393Z,90.70
2023-03-06T04:40:30.358Z,90.50
2023-03-06T04:41:30.358Z,90.08
2023-03-06T04:42:30.339Z,89.77
2023-03-06T04:43:30.620Z,89.67
2023-03-06T04:44:30.329Z,89.83
2023-03-06T04:45:30.327Z,90.04
2023-03-06T04:46:30.296Z,90.04
2023-03-06T04:47:30.280Z,89.56
2023-03-06T04:48:30.261Z,89.87
2023-03-06T04:49:30.300Z,89.98
2023-03-06T04:50:30.239Z,89.56
2023-03-06T04:51:30.260Z,89.67
2023-03-06T04:52:30.262Z,89.87
2023-03-06T04:53:30.255Z,89.67
2023-03-06T04:54:30.191Z,89.98
2023-03-06T04:55:30.202Z,89.98
2023-03-06T04:56:30.179Z,89.77
2023-03-06T04:57:30.162Z,90.08
2023-03-06T04:58:30.170Z,90.60
2023-03-06T04:59:30.165Z,90.60
2023-03-06T05:00:30.125Z,90.29
2023-03-06T05:01:30.120Z,90.50
2023-03-06T05:02:30.217Z,91.22
2023-03-06T05:03:30.127Z,91.02
2023-03-06T05:04:30.111Z,91.64
2023-03-06T05:05:30.070Z,90.64
2023-03-06T05:06:30.070Z,91.06
2023-03-06T05:07:30.047Z,91.33
2023-03-06T05:08:30.348Z,91.58
2023-03-06T05:09:30.040Z,91.58
2023-03-06T05:10:30.015Z,91.89
2023-03-06T05:11:29.994Z,92.05
2023-03-06T05:12:29.995Z,91.99
2023-03-06T05:13:30.025Z,91.89
2023-03-06T05:14:29.966Z,92.10
2023-03-06T05:15:29.950Z,91.89
2023-03-06T05:16:30.246Z,91.89
2023-03-06T05:17:29.932Z,91.99
2023-03-06T05:18:29.915Z,92.20
2023-03-06T05:19:29.924Z,92.30
2023-03-06T05:20:30.209Z,92.47
2023-03-06T05:21:29.884Z,92.51
2023-03-06T05:22:29.878Z,92.61
2023-03-06T05:23:29.855Z,92.30
2023-03-06T05:24:29.866Z,92.26
2023-03-06T05:25:29.873Z,92.57
2023-03-06T05:26:29.830Z,92.57
2023-03-06T05:27:30.124Z,92.36
2023-03-06T05:28:29.804Z,92.36
2023-03-06T05:29:29.801Z,92.10
2023-03-06T05:30:29.772Z,91.89
2023-03-06T05:31:29.781Z,92.30
2023-03-06T05:32:29.839Z,92.51
2023-03-06T05:33:29.742Z,92.41
2023-03-06T05:34:29.780Z,91.47
2023-03-06T05:35:29.753Z,91.68
2023-03-06T05:36:29.711Z,91.58
2023-03-06T05:37:29.703Z,91.68
2023-03-06T05:38:29.677Z,91.64
2023-03-06T05:39:29.987Z,91.74
2023-03-06T05:40:29.661Z,91.53
2023-03-06T05:41:29.670Z,91.22
2023-03-06T05:42:29.661Z,91.27
2023-03-06T05:43:29.644Z,91.16
2023-03-06T05:44:29.619Z,90.95
2023-03-06T05:45:29.608Z,90.75
2023-03-06T05:46:37.594Z,90.95
2023-03-06T05:47:36.609Z,91.27
2023-03-06T05:48:36.608Z,91.16
2023-03-06T05:49:37.590Z,91.27
2023-03-06T05:50:29.541Z,91.68
2023-03-06T05:51:29.540Z,91.58
2023-03-06T05:52:29.523Z,91.37
2023-03-06T05:53:29.526Z,91.27
2023-03-06T05:54:29.533Z,91.16
2023-03-06T05:55:29.556Z,91.16
2023-03-06T05:56:29.497Z,90.33
2023-03-06T05:57:29.472Z,90.39
2023-03-06T05:58:29.457Z,90.12
2023-03-06T05:59:29.480Z,90.12
2023-03-06T06:00:29.452Z,90.29
2023-03-06T06:01:29.434Z,90.12
2023-03-06T06:02:29.468Z,90.19
2023-03-06T06:03:29.713Z,90.39
2023-03-06T06:04:29.425Z,90.08
2023-03-06T06:05:29.389Z,90.19
2023-03-06T06:06:29.367Z,90.60
2023-03-06T06:07:29.366Z,90.08
2023-03-06T06:08:29.341Z,89.98
2023-03-06T06:09:29.366Z,89.56
2023-03-06T06:10:29.321Z,89.87
2023-03-06T06:11:29.306Z,90.08
2023-03-06T06:12:29.298Z,90.39
2023-03-06T06:13:34.209Z,89.77
2023-03-06T06:14:29.276Z,89.67
2023-03-06T06:15:29.256Z,90.08
2023-03-06T06:16:29.245Z,90.19
2023-03-06T06:17:29.247Z,90.50
2023-03-06T06:18:29.224Z,90.50
2023-03-06T06:19:29.490Z,90.39
2023-03-06T06:20:29.199Z,89.98
2023-03-06T06:21:29.197Z,89.67
2023-03-06T06:22:29.186Z,89.77
2023-03-06T06:23:29.167Z,90.19
2023-03-06T06:24:29.196Z,90.70
2023-03-06T06:25:29.436Z,90.70
2023-03-06T06:26:29.131Z,90.45
2023-03-06T06:27:29.122Z,90.50
2023-03-06T06:28:29.108Z,90.29
2023-03-06T06:29:29.110Z,90.19
2023-03-06T06:30:29.098Z,90.08
2023-03-06T06:31:29.104Z,90.29
2023-03-06T06:32:29.104Z,89.87
2023-03-06T06:33:29.051Z,89.67
2023-03-06T06:34:29.207Z,89.73
2023-03-06T06:35:29.062Z,89.94
2023-03-06T06:36:29.015Z,89.83
2023-03-06T06:37:29.009Z,90.14
2023-03-06T06:38:28.999Z,90.04
2023-03-06T06:39:29.034Z,89.62
2023-03-06T06:40:28.960Z,89.52
2023-03-06T06:41:53.679Z,89.83
2023-03-06T06:42:36.915Z,89.83
2023-03-06T06:43:29.939Z,90.04
2023-03-06T06:44:28.941Z,89.42
2023-03-06T06:45:28.921Z,89.31
2023-03-06T06:47:19.245Z,89.21
2023-03-06T06:47:29.948Z,89.21
2023-03-06T06:48:28.898Z,89.21
2023-03-06T06:49:28.887Z,89.31
2023-03-06T06:50:28.910Z,88.38
2023-03-06T06:51:28.856Z,88.90
2023-03-06T06:52:28.865Z,89.52
2023-03-06T06:53:28.834Z,89.83
2023-03-06T06:54:28.819Z,89.73
2023-03-06T06:55:29.079Z,89.83
2023-03-06T06:56:28.802Z,89.83
2023-03-06T06:57:28.785Z,89.73
2023-03-06T06:58:28.778Z,89.21
2023-03-06T06:59:28.768Z,89.11
2023-03-06T07:00:28.756Z,89.42
2023-03-06T07:01:28.780Z,89.21
2023-03-06T07:02:28.720Z,89.21
2023-03-06T07:03:28.723Z,88.48
2023-03-06T07:04:28.711Z,88.38
2023-03-06T07:05:28.689Z,88.52
2023-03-06T07:06:28.693Z,88.84
2023-03-06T07:07:28.665Z,88.31
2023-03-06T07:08:28.649Z,88.52
2023-03-06T07:09:28.942Z,88.42
2023-03-06T07:10:28.634Z,88.59
2023-03-06T07:11:28.621Z,89.11
2023-03-06T07:12:28.600Z,89.21
2023-03-06T07:13:28.602Z,88.90
2023-03-06T07:14:28.600Z,87.86
2023-03-06T07:15:28.620Z,87.55
2023-03-06T07:16:28.571Z,87.96
2023-03-06T07:17:28.549Z,87.96
2023-03-06T07:18:28.546Z,88.07
2023-03-06T07:19:28.524Z,88.07
2023-03-06T07:20:35.528Z,88.02
2023-03-06T07:21:35.508Z,87.82
2023-03-06T07:22:31.922Z,88.13
2023-03-06T07:23:29.471Z,87.71
2023-03-06T07:24:28.468Z,87.71
2023-03-06T07:25:35.484Z,87.51
2023-03-06T07:26:28.455Z,87.71
2023-03-06T07:27:28.460Z,87.71
2023-03-06T07:28:28.422Z,87.13
2023-03-06T07:29:28.453Z,87.34
2023-03-06T07:30:28.427Z,87.65
2023-03-06T07:31:28.506Z,87.03
2023-03-06T07:32:28.432Z,87.19
2023-03-06T07:33:28.363Z,86.82
2023-03-06T07:34:28.387Z,87.13
2023-03-06T07:35:28.344Z,87.03
2023-03-06T07:36:28.324Z,87.19
2023-03-06T07:37:28.328Z,87.71
2023-03-06T07:38:28.312Z,87.40
2023-03-06T07:39:28.336Z,87.09
2023-03-06T07:40:28.342Z,87.16
2023-03-06T07:41:28.292Z,87.37
2023-03-06T07:42:28.290Z,87.47
2023-03-06T07:43:28.256Z,86.85
2023-03-06T07:44:28.257Z,86.33
2023-03-06T07:45:28.238Z,86.26
2023-03-06T07:46:28.390Z,86.16
2023-03-06T07:47:28.221Z,86.36
2023-03-06T07:48:28.198Z,86.99
2023-03-06T07:49:28.519Z,86.36
2023-03-06T07:50:28.182Z,86.47
2023-03-06T07:51:28.160Z,86.78
2023-03-06T07:52:28.159Z,86.68
2023-03-06T07:53:28.151Z,86.99
2023-03-06T07:54:29.870Z,86.88
2023-03-06T07:55:28.150Z,87.40
2023-03-06T07:56:28.113Z,86.88
2023-03-06T07:57:28.080Z,86.57
2023-03-06T07:58:28.081Z,86.68
2023-03-06T07:59:28.090Z,86.57
2023-03-06T08:00:28.051Z,87.09
2023-03-06T08:01:28.064Z,86.57
2023-03-06T08:02:28.049Z,86.68
2023-03-06T08:03:28.059Z,86.88
2023-03-06T08:04:29.114Z,87.09
2023-03-06T08:05:28.005Z,86.47
2023-03-06T08:06:28.001Z,86.57
2023-03-06T08:07:27.973Z,86.68
2023-03-06T08:08:27.965Z,86.78
2023-03-06T08:09:27.971Z,86.88
2023-03-06T08:10:27.942Z,86.78
2023-03-06T08:11:27.965Z,86.54
2023-03-06T08:12:27.930Z,86.74
2023-03-06T08:13:27.907Z,86.33
2023-03-06T08:14:27.923Z,86.85
2023-03-06T08:15:27.897Z,86.54
2023-03-06T08:16:27.915Z,85.50
2023-03-06T08:17:27.869Z,85.71
2023-03-06T08:18:27.847Z,85.71
2023-03-06T08:19:27.846Z,85.71
2023-03-06T08:20:27.837Z,86.02
2023-03-06T08:21:27.827Z,86.02
2023-03-06T08:22:27.801Z,86.12
2023-03-06T08:23:27.822Z,85.91
2023-03-06T08:24:27.777Z,85.91
2023-03-06T08:25:27.773Z,85.71
2023-03-06T08:26:27.789Z,86.12
2023-03-06T08:27:27.736Z,86.12
2023-03-06T08:28:27.726Z,86.02
2023-03-06T08:29:27.861Z,86.22
2023-03-06T08:30:27.714Z,86.22
2023-03-06T08:31:27.803Z,86.12
2023-03-06T08:32:27.718Z,86.08
2023-03-06T08:33:27.745Z,85.66
2023-03-06T08:34:27.687Z,85.66
2023-03-06T08:35:27.702Z,85.87
2023-03-06T08:36:27.718Z,85.21
2023-03-06T08:37:27.623Z,84.80
2023-03-06T08:38:27.608Z,84.59
2023-03-06T08:39:30.494Z,85.00
2023-03-06T08:40:27.629Z,84.69
2023-03-06T08:41:27.580Z,85.27
2023-03-06T08:42:27.598Z,83.55
2023-03-06T08:43:27.646Z,83.45
2023-03-06T08:44:27.590Z,83.65
2023-03-06T08:45:27.602Z,84.38
2023-03-06T08:46:27.530Z,83.93
2023-03-06T08:47:27.797Z,83.31
2023-03-06T08:48:27.496Z,83.51
2023-03-06T08:49:27.510Z,83.62
2023-03-06T08:50:27.497Z,83.37
2023-03-06T08:51:27.464Z,83.12
2023-03-06T08:52:27.460Z,83.33
2023-03-06T08:53:41.772Z,83.23
2023-03-06T08:54:28.445Z,82.19
2023-03-06T08:55:27.466Z,81.68
2023-03-06T08:56:27.424Z,82.13
2023-03-06T08:57:27.389Z,82.27
2023-03-06T08:58:34.426Z,83.16
2023-03-06T08:59:34.823Z,83.06
2023-03-06T09:00:27.397Z,82.23
2023-03-06T09:01:27.478Z,82.44
2023-03-06T09:02:27.441Z,82.27
2023-03-06T09:03:27.325Z,82.58
2023-03-06T09:04:27.613Z,82.79
2023-03-06T09:05:27.338Z,82.79
2023-03-06T09:06:27.304Z,82.27
2023-03-06T09:07:27.302Z,82.48
2023-03-06T09:08:27.274Z,82.68
2023-03-06T09:09:27.282Z,83.00
2023-03-06T09:10:27.309Z,82.37
2023-03-06T09:11:27.254Z,82.41
2023-03-06T09:12:28.113Z,83.03
2023-03-06T09:13:27.275Z,82.62
2023-03-06T09:14:27.310Z,82.31
2023-03-06T09:15:27.213Z,82.68
2023-03-06T09:16:27.255Z,82.06
2023-03-06T09:17:27.229Z,80.99
2023-03-06T09:18:27.165Z,80.57
2023-03-06T09:19:27.146Z,80.26
2023-03-06T09:20:27.159Z,80.51
2023-03-06T09:21:27.142Z,80.92
2023-03-06T09:22:27.137Z,81.61
2023-03-06T09:23:27.200Z,81.57
2023-03-06T09:24:27.483Z,80.16
2023-03-06T09:25:27.130Z,80.47
2023-03-06T09:26:39.590Z,80.40
2023-03-06T09:27:28.074Z,79.37
2023-03-06T09:28:27.059Z,79.88
2023-03-06T09:29:27.041Z,80.61
2023-03-06T09:30:27.059Z,80.30
2023-03-06T09:31:27.034Z,80.54
2023-03-06T09:32:27.064Z,80.71
2023-03-06T09:33:27.015Z,80.82
2023-03-06T09:34:27.279Z,80.36
2023-03-06T09:35:26.995Z,79.85
2023-03-06T09:36:26.985Z,79.33
2023-03-06T09:37:26.960Z,79.30
2023-03-06T09:38:26.955Z,78.40
2023-03-06T09:39:26.923Z,78.30
2023-03-06T09:40:26.963Z,78.50
2023-03-06T09:41:26.933Z,79.02
2023-03-06T09:42:26.921Z,79.13
2023-03-06T09:43:26.883Z,79.54
2023-03-06T09:44:27.203Z,79.74
2023-03-06T09:45:26.876Z,79.44
2023-03-06T09:46:26.916Z,79.23
2023-03-06T09:47:26.864Z,79.64
2023-03-06T09:48:26.831Z,79.09
2023-03-06T09:49:26.822Z,78.78
2023-03-06T09:50:26.818Z,78.85
2023-03-06T09:51:26.807Z,78.33
2023-03-06T09:52:26.787Z,77.33
2023-03-06T09:53:26.806Z,77.74
2023-03-06T09:54:29.570Z,77.95
2023-03-06T09:55:26.772Z,77.84
2023-03-06T09:56:26.745Z,77.64
2023-03-06T09:57:26.738Z,78.26
2023-03-06T09:58:26.747Z,77.98
2023-03-06T09:59:26.711Z,78.09
2023-03-06T10:00:26.706Z,78.50
2023-03-06T10:01:26.692Z,78.26
2023-03-06T10:02:26.842Z,77.74
2023-03-06T10:03:26.711Z,77.74
2023-03-06T10:04:26.958Z,77.57
2023-03-06T10:05:26.650Z,77.57
2023-03-06T10:06:26.650Z,77.98
2023-03-06T10:07:26.638Z,77.95
2023-03-06T10:08:26.604Z,78.16
2023-03-06T10:09:26.602Z,77.53
2023-03-06T10:10:26.591Z,75.98
2023-03-06T10:11:26.603Z,76.67
2023-03-06T10:12:26.572Z,76.88
2023-03-06T10:13:26.541Z,76.67
2023-03-06T10:14:26.602Z,77.70
2023-03-06T10:15:26.621Z,76.36
2023-03-06T10:16:26.538Z,76.05
2023-03-06T10:17:26.515Z,76.57
2023-03-06T10:18:26.495Z,76.57
2023-03-06T10:19:26.493Z,75.53
2023-03-06T10:20:26.489Z,76.15
2023-03-06T10:21:26.488Z,75.88
2023-03-06T10:22:26.441Z,76.26
2023-03-06T10:23:26.467Z,76.29
2023-03-06T10:24:26.462Z,76.40
2023-03-06T10:25:26.444Z,76.98
2023-03-06T10:26:26.548Z,76.98
2023-03-06T10:27:26.393Z,75.74
2023-03-06T10:28:26.385Z,75.74
2023-03-06T10:29:26.370Z,76.15
2023-03-06T10:30:26.599Z,75.43
2023-03-06T10:31:26.402Z,75.29
2023-03-06T10:32:27.949Z,74.98
2023-03-06T10:33:33.354Z,75.36
2023-03-06T10:34:33.333Z,73.91
2023-03-06T10:35:33.368Z,74.53
2023-03-06T10:36:34.581Z,74.43
2023-03-06T10:37:33.294Z,74.02
2023-03-06T10:38:26.617Z,73.29
2023-03-06T10:39:26.525Z,73.60
2023-03-06T10:40:26.591Z,73.50
2023-03-06T10:41:26.264Z,73.39
2023-03-06T10:42:29.040Z,73.84
2023-03-06T10:43:26.621Z,74.12
2023-03-06T10:44:26.554Z,73.91
2023-03-06T10:45:26.205Z,73.47
2023-03-06T10:46:26.347Z,71.92
2023-03-06T10:47:28.063Z,71.92
2023-03-06T10:48:28.133Z,71.22
2023-03-06T10:49:27.972Z,72.12
2023-03-06T10:50:26.139Z,71.57
2023-03-06T10:51:26.517Z,70.85
2023-03-06T10:52:26.106Z,70.67
2023-03-06T10:53:26.108Z,71.06
2023-03-06T10:54:26.392Z,70.95
2023-03-06T10:55:26.096Z,70.40
2023-03-06T10:56:28.902Z,69.92
2023-03-06T10:57:26.066Z,70.95
2023-03-06T10:58:26.039Z,70.03
2023-03-06T10:59:26.035Z,70.30
2023-03-06T11:00:26.036Z,68.88
2023-03-06T11:01:26.023Z,69.61
2023-03-06T11:02:26.019Z,69.40
2023-03-06T11:03:25.974Z,69.37
2023-03-06T11:04:26.035Z,68.65
2023-03-06T11:05:25.975Z,68.54
2023-03-06T11:06:25.945Z,68.78
2023-03-06T11:07:26.121Z,68.99
2023-03-06T11:08:25.928Z,69.20
2023-03-06T11:09:25.914Z,69.17
2023-03-06T11:10:25.901Z,68.99
2023-03-06T11:11:37.099Z,68.68
2023-03-06T11:12:26.905Z,68.88
2023-03-06T11:13:25.865Z,69.12
2023-03-06T11:14:27.666Z,69.33
2023-03-06T11:15:25.873Z,69.12
2023-03-06T11:16:26.154Z,69.54
2023-03-06T11:17:25.813Z,69.47
2023-03-06T11:18:25.806Z,69.37
2023-03-06T11:19:25.792Z,69.67
2023-03-06T11:20:25.808Z,69.78
2023-03-06T11:21:25.794Z,69.57
2023-03-06T11:22:25.795Z,69.67
2023-03-06T11:23:25.743Z,69.43
2023-03-06T11:24:25.749Z,69.43
2023-03-06T11:25:25.741Z,69.54
2023-03-06T11:26:25.739Z,69.12
2023-03-06T11:27:25.710Z,69.23
2023-03-06T11:28:25.692Z,69.23
2023-03-06T11:29:25.786Z,69.12
2023-03-06T11:30:25.672Z,69.82
2023-03-06T11:31:25.685Z,70.12
2023-03-06T11:32:25.778Z,69.48
2023-03-06T11:33:25.634Z,68.44
2023-03-06T11:34:25.613Z,68.54
2023-03-06T11:35:25.658Z,68.41
2023-03-06T11:36:25.583Z,68.21
2023-03-06T11:37:25.583Z,67.90
2023-03-06T11:38:25.560Z,67.41
2023-03-06T11:39:25.564Z,68.03
2023-03-06T11:40:25.573Z,68.93
2023-03-06T11:41:25.529Z,68.00
2023-03-06T11:42:25.553Z,68.00
2023-03-06T11:43:25.527Z,67.69
2023-03-06T11:44:25.515Z,67.82
2023-03-06T11:45:25.519Z,68.37
2023-03-06T11:46:25.534Z,68.82
2023-03-06T11:47:25.469Z,69.02
2023-03-06T11:48:25.455Z,69.71
2023-03-06T11:49:25.500Z,69.48
2023-03-06T11:50:25.813Z,69.03
2023-03-06T11:51:25.450Z,67.76
2023-03-06T11:52:25.417Z,67.38
2023-03-06T11:53:25.419Z,67.61
2023-03-06T11:54:25.376Z,68.30
2023-03-06T11:55:25.400Z,68.10
2023-03-06T11:56:25.373Z,68.10
2023-03-06T11:57:25.356Z,67.69
2023-03-06T11:58:25.326Z,68.34
2023-03-06T11:59:25.331Z,68.85
2023-03-06T12:00:25.317Z,68.93
2023-03-06T12:01:25.307Z,68.72
2023-03-06T12:02:25.340Z,68.27
2023-03-06T12:03:25.278Z,67.38
2023-03-06T12:04:25.286Z,67.61
2023-03-06T12:05:25.309Z,67.90
2023-03-06T12:06:25.244Z,67.21
2023-03-06T12:07:25.248Z,66.79
2023-03-06T12:08:25.228Z,67.21
2023-03-06T12:09:32.230Z,67.21
2023-03-06T12:10:25.206Z,67.10
2023-03-06T12:11:25.179Z,67.07
2023-03-06T12:12:32.195Z,66.35
2023-03-06T12:14:25.152Z,66.24
2023-03-06T12:15:25.157Z,66.45
2023-03-06T12:16:25.170Z,66.24
2023-03-06T12:17:25.123Z,66.89
2023-03-06T12:18:25.128Z,67.30
2023-03-06T12:19:25.093Z,67.58
2023-03-06T12:20:25.105Z,67.17
2023-03-06T12:21:25.084Z,66.89
2023-03-06T12:22:25.371Z,67.58
2023-03-06T12:23:25.043Z,66.55
2023-03-06T12:24:25.042Z,67.17
2023-03-06T12:25:25.041Z,66.45
2023-03-06T12:26:25.304Z,66.97
2023-03-06T12:27:25.016Z,66.66
2023-03-06T12:28:24.986Z,66.69
2023-03-06T12:29:24.983Z,67.13
2023-03-06T12:30:24.999Z,67.10
2023-03-06T12:31:25.028Z,67.61
2023-03-06T12:32:25.020Z,67.00
2023-03-06T12:33:24.967Z,67.13
2023-03-06T12:34:24.931Z,67.54
2023-03-06T12:35:24.953Z,67.51
2023-03-06T12:36:24.893Z,67.10
2023-03-06T12:37:24.895Z,67.30
2023-03-06T12:38:24.870Z,67.41
2023-03-06T12:39:24.865Z,66.93
2023-03-06T12:40:24.872Z,66.51
2023-03-06T12:41:24.857Z,66.82
2023-03-06T12:42:24.863Z,67.13
2023-03-06T12:43:24.818Z,66.30
2023-03-06T12:44:24.816Z,66.30
2023-03-06T12:45:24.833Z,66.41
2023-03-06T12:46:24.851Z,67.03
2023-03-06T12:47:24.796Z,66.61
2023-03-06T12:48:24.754Z,67.03
2023-03-06T12:49:32.085Z,67.10
2023-03-06T12:50:25.738Z,66.07
2023-03-06T12:51:24.724Z,66.17
2023-03-06T12:52:29.680Z,66.07
2023-03-06T12:53:25.706Z,66.30